createdAt,value
2018-02-14T00:00:40.699Z,93.50
2018-02-14T00:03:07.238Z,93.40
2018-02-14T00:05:33.454Z,93.40
2018-02-14T00:07:59.680Z,93.50
2018-02-14T00:10:25.902Z,93.50
2018-02-14T00:12:52.130Z,93.50
2018-02-14T00:15:18.364Z,93.60
2018-02-14T00:17:45.325Z,93.60
2018-02-14T00:20:12.284Z,93.70
2018-02-14T00:22:39.266Z,93.70
2018-02-14T00:25:05.512Z,93.70
2018-02-14T00:27:31.740Z,93.80
2018-02-14T00:29:57.952Z,93.80
2018-02-14T00:32:24.918Z,93.70
2018-02-14T00:34:51.871Z,93.70
2018-02-14T00:37:18.824Z,93.70
2018-02-14T00:39:45.055Z,93.70
2018-02-14T00:42:12.009Z,93.60
2018-02-14T00:44:38.988Z,94.00
2018-02-14T00:47:05.944Z,93.60
2018-02-14T00:49:32.910Z,93.60
2018-02-14T00:51:59.163Z,93.60
2018-02-14T00:54:25.374Z,93.60
2018-02-14T00:56:52.344Z,93.60
2018-02-14T00:59:19.311Z,93.60
2018-02-14T01:01:45.518Z,93.60
2018-02-14T01:04:11.765Z,93.70
2018-02-14T01:06:38.739Z,93.80
2018-02-14T01:09:04.941Z,93.80
2018-02-14T01:11:31.157Z,93.90
2018-02-14T01:13:57.375Z,94.00
2018-02-14T01:16:23.587Z,94.00
2018-02-14T01:18:50.530Z,93.90
2018-02-14T01:21:16.745Z,93.90
2018-02-14T01:23:42.989Z,93.90
2018-02-14T01:26:09.203Z,94.00
2018-02-14T01:28:35.480Z,94.00
2018-02-14T01:31:01.683Z,93.90
2018-02-14T01:33:27.903Z,93.90
2018-02-14T01:35:54.139Z,93.80
2018-02-14T01:38:21.112Z,93.80
2018-02-14T01:40:47.335Z,93.80
2018-02-14T01:43:14.285Z,93.80
2018-02-14T01:45:40.503Z,93.80
2018-02-14T01:48:06.735Z,93.80
2018-02-14T01:50:37.783Z,93.80
2018-02-14T01:53:04.019Z,93.80
2018-02-14T01:55:30.983Z,93.70
2018-02-14T01:57:57.216Z,93.70
2018-02-14T02:00:23.453Z,93.70
2018-02-14T02:02:49.666Z,93.70
2018-02-14T02:05:15.918Z,93.70
2018-02-14T02:07:42.146Z,93.60
2018-02-14T02:10:08.367Z,93.50
2018-02-14T02:12:35.366Z,93.40
2018-02-14T02:15:01.590Z,93.40
2018-02-14T02:17:27.828Z,93.40
2018-02-14T02:19:54.066Z,93.50
2018-02-14T02:22:21.044Z,93.60
2018-02-14T02:24:47.272Z,93.60
2018-02-14T02:27:13.506Z,93.70
2018-02-14T02:29:39.740Z,93.70
2018-02-14T02:32:05.959Z,93.70
2018-02-14T02:34:32.932Z,94.00
2018-02-14T02:36:59.168Z,93.60
2018-02-14T02:39:37.701Z,93.70
2018-02-14T02:42:03.930Z,93.70
2018-02-14T02:44:30.893Z,93.70
2018-02-14T02:46:57.144Z,93.70
2018-02-14T02:49:23.366Z,93.60
2018-02-14T02:51:50.330Z,93.50
2018-02-14T02:54:16.552Z,93.50
2018-02-14T02:56:43.800Z,93.50
2018-02-14T02:59:10.037Z,93.40
2018-02-14T03:01:36.245Z,93.50
2018-02-14T03:04:02.483Z,93.50
2018-02-14T03:06:28.720Z,93.40
2018-02-14T03:08:55.208Z,93.40
2018-02-14T03:11:21.426Z,93.40
2018-02-14T03:13:47.650Z,93.40
2018-02-14T03:16:13.862Z,93.40
2018-02-14T03:18:40.062Z,93.40
2018-02-14T03:21:06.304Z,93.30
2018-02-14T03:23:32.514Z,93.30
2018-02-14T03:25:58.748Z,93.20
2018-02-14T03:28:25.001Z,93.20
2018-02-14T03:30:51.202Z,93.20
2018-02-14T03:33:17.459Z,93.20
2018-02-14T03:35:43.687Z,93.10
2018-02-14T03:38:09.909Z,93.00
2018-02-14T03:40:36.879Z,93.00
2018-02-14T03:43:03.851Z,93.10
2018-02-14T03:45:30.116Z,93.10
2018-02-14T03:47:56.316Z,93.20
2018-02-14T03:50:22.527Z,93.20
2018-02-14T03:52:48.752Z,93.20
2018-02-14T03:55:14.974Z,93.40
2018-02-14T03:57:41.251Z,93.30
2018-02-14T04:00:07.512Z,93.30
2018-02-14T04:02:34.463Z,93.30
2018-02-14T04:05:01.459Z,93.20
2018-02-14T04:07:27.659Z,93.10
2018-02-14T04:09:54.891Z,93.00
2018-02-14T04:12:21.110Z,93.00
2018-02-14T04:14:47.340Z,93.00
2018-02-14T04:17:13.577Z,93.00
2018-02-14T04:19:39.796Z,93.10
2018-02-14T04:22:06.761Z,93.00
2018-02-14T04:24:33.007Z,93.10
2018-02-14T04:26:59.255Z,93.00
2018-02-14T04:29:25.480Z,93.00
2018-02-14T04:31:52.448Z,93.00
2018-02-14T04:34:18.658Z,93.00
2018-02-14T04:36:45.602Z,93.30
2018-02-14T04:39:11.832Z,93.00
2018-02-14T04:41:38.051Z,92.90
2018-02-14T04:44:04.280Z,93.00
2018-02-14T04:46:30.517Z,93.00
2018-02-14T04:48:56.724Z,93.10
2018-02-14T04:51:23.716Z,93.20
2018-02-14T04:53:49.930Z,93.20
2018-02-14T04:56:16.887Z,93.00
2018-02-14T04:58:43.129Z,93.00
2018-02-14T05:01:09.406Z,93.00
2018-02-14T05:03:35.633Z,93.00
2018-02-14T05:06:01.854Z,93.00
2018-02-14T05:08:28.080Z,93.00
2018-02-14T05:10:55.038Z,93.00
2018-02-14T05:13:21.990Z,92.90
2018-02-14T05:15:48.971Z,92.80
2018-02-14T05:18:15.176Z,92.80
2018-02-14T05:20:42.122Z,92.80
2018-02-14T05:23:08.416Z,92.80
2018-02-14T05:25:34.629Z,92.90
2018-02-14T05:28:01.650Z,92.90
2018-02-14T05:30:27.860Z,92.90
2018-02-14T05:32:54.109Z,92.90
2018-02-14T05:35:20.322Z,92.90
2018-02-14T05:37:46.522Z,92.90
2018-02-14T05:40:12.744Z,92.90
2018-02-14T05:42:38.950Z,93.00
2018-02-14T05:45:05.201Z,93.00
2018-02-14T05:47:31.418Z,93.00
2018-02-14T05:49:57.642Z,93.00
2018-02-14T05:52:24.593Z,93.00
2018-02-14T05:54:51.550Z,97.10
2018-02-14T05:57:18.502Z,99.20
2018-02-14T05:59:44.711Z,99.10
2018-02-14T06:02:10.960Z,98.60
2018-02-14T06:04:37.170Z,97.40
2018-02-14T06:07:03.391Z,95.10
2018-02-14T06:09:29.621Z,93.60
2018-02-14T06:11:56.570Z,91.30
2018-02-14T06:14:23.542Z,87.80
2018-02-14T06:16:49.744Z,87.60
2018-02-14T06:19:15.965Z,86.70
2018-02-14T06:21:42.207Z,84.00
2018-02-14T06:24:08.411Z,83.50
2018-02-14T06:26:35.400Z,85.20
2018-02-14T06:29:01.615Z,84.50
2018-02-14T06:31:27.831Z,84.80
2018-02-14T06:33:54.793Z,87.10
2018-02-14T06:36:21.752Z,87.80
2018-02-14T06:38:47.979Z,87.80
2018-02-14T06:41:14.241Z,89.00
2018-02-14T06:43:40.453Z,90.00
2018-02-14T06:46:06.685Z,90.30
2018-02-14T06:48:32.905Z,90.50
2018-02-14T06:50:59.143Z,90.60
2018-02-14T06:53:25.343Z,90.80
2018-02-14T06:55:51.576Z,91.10
2018-02-14T06:58:17.812Z,91.40
2018-02-14T07:00:44.790Z,91.40
2018-02-14T07:03:11.021Z,91.40
2018-02-14T07:05:37.234Z,91.30
2018-02-14T07:08:04.206Z,91.70
2018-02-14T07:10:30.454Z,91.70
2018-02-14T07:12:57.402Z,92.00
2018-02-14T07:15:24.390Z,92.30
2018-02-14T07:17:50.622Z,92.30
2018-02-14T07:20:16.830Z,92.40
2018-02-14T07:22:43.828Z,92.60
2018-02-14T07:25:10.035Z,92.60
2018-02-14T07:27:37.030Z,93.70
2018-02-14T07:30:03.246Z,93.70
2018-02-14T07:32:29.442Z,93.60
2018-02-14T07:34:55.652Z,93.80
2018-02-14T07:37:21.874Z,93.50
2018-02-14T07:39:48.112Z,93.20
2018-02-14T07:42:14.331Z,92.90
2018-02-14T07:44:41.283Z,93.00
2018-02-14T07:47:07.482Z,93.00
2018-02-14T07:49:33.684Z,93.00
2018-02-14T07:51:59.898Z,92.90
2018-02-14T07:54:26.864Z,92.70
2018-02-14T07:56:53.841Z,92.60
2018-02-14T07:59:20.048Z,92.60
2018-02-14T08:01:46.303Z,92.40
2018-02-14T08:04:13.289Z,92.60
2018-02-14T08:06:39.495Z,92.60
2018-02-14T08:09:06.521Z,92.60
2018-02-14T08:11:32.706Z,92.50
2018-02-14T08:13:59.692Z,94.50
2018-02-14T08:16:25.923Z,94.50
2018-02-14T08:18:52.144Z,94.80
2018-02-14T08:21:18.381Z,94.90
2018-02-14T08:23:45.345Z,94.60
2018-02-14T08:26:11.588Z,94.60
2018-02-14T08:28:37.799Z,94.80
2018-02-14T08:31:04.025Z,94.20
2018-02-14T08:33:30.277Z,93.70
2018-02-14T08:35:56.513Z,93.50
2018-02-14T08:38:22.723Z,93.20
2018-02-14T08:40:49.705Z,92.60
2018-02-14T08:43:15.918Z,92.60
2018-02-14T08:45:42.128Z,92.60
2018-02-14T08:48:08.374Z,92.70
2018-02-14T08:50:34.563Z,92.80
2018-02-14T08:53:00.779Z,93.00
2018-02-14T08:55:26.988Z,93.20
2018-02-14T08:57:53.207Z,93.30
2018-02-14T09:00:20.238Z,93.10
2018-02-14T09:02:47.212Z,93.00
2018-02-14T09:05:13.447Z,93.00
2018-02-14T09:07:39.709Z,92.90
2018-02-14T09:10:06.679Z,92.40
2018-02-14T09:12:33.673Z,92.40
2018-02-14T09:14:59.937Z,92.40
2018-02-14T09:17:26.209Z,92.30
2018-02-14T09:19:53.159Z,92.30
2018-02-14T09:22:19.390Z,92.30
2018-02-14T09:24:45.626Z,92.40
2018-02-14T09:27:11.864Z,92.30
2018-02-14T09:29:38.104Z,92.20
2018-02-14T09:32:04.320Z,92.20
2018-02-14T09:34:30.582Z,91.90
2018-02-14T09:36:56.824Z,91.70
2018-02-14T09:39:23.054Z,91.40
2018-02-14T09:41:49.269Z,91.40
2018-02-14T09:44:15.504Z,91.30
2018-02-14T09:46:41.790Z,91.30
2018-02-14T09:49:08.060Z,91.10
2018-02-14T09:51:34.309Z,91.20
2018-02-14T09:54:00.530Z,91.10
2018-02-14T09:56:26.773Z,90.90
2018-02-14T09:58:53.761Z,90.80
2018-02-14T10:01:20.007Z,90.80
2018-02-14T10:03:46.238Z,90.80
2018-02-14T10:06:12.462Z,90.90
2018-02-14T10:08:38.687Z,90.80
2018-02-14T10:11:05.686Z,90.50
2018-02-14T10:13:31.894Z,90.50
2018-02-14T10:15:58.859Z,89.20
2018-02-14T10:18:25.812Z,88.10
2018-02-14T10:20:52.795Z,88.40
2018-02-14T10:23:19.021Z,88.40
2018-02-14T10:25:45.245Z,88.90
2018-02-14T10:28:12.204Z,89.10
2018-02-14T10:30:39.168Z,89.20
2018-02-14T10:33:06.123Z,88.90
2018-02-14T10:35:32.774Z,88.90
2018-02-14T10:37:59.732Z,88.20
2018-02-14T10:40:26.691Z,87.70
2018-02-14T10:42:52.927Z,87.70
2018-02-14T10:45:19.897Z,86.30
2018-02-14T10:47:46.117Z,86.30
2018-02-14T10:50:12.329Z,85.60
2018-02-14T10:52:38.631Z,84.90
2018-02-14T10:55:04.855Z,84.70
2018-02-14T10:57:31.059Z,83.90
2018-02-14T10:59:57.297Z,82.90
2018-02-14T11:02:23.599Z,81.70
2018-02-14T11:04:56.037Z,81.10
2018-02-14T11:07:22.274Z,80.60
2018-02-14T11:09:48.498Z,80.10
2018-02-14T11:12:14.712Z,79.70
2018-02-14T11:14:40.944Z,79.30
2018-02-14T11:17:07.193Z,78.80
2018-02-14T11:19:33.445Z,78.30
2018-02-14T11:21:59.672Z,78.80
2018-02-14T11:24:25.931Z,79.40
2018-02-14T11:26:52.200Z,80.10
2018-02-14T11:29:18.404Z,80.10
2018-02-14T11:31:44.640Z,79.60
2018-02-14T11:34:10.875Z,78.60
2018-02-14T11:36:37.116Z,78.10
2018-02-14T11:39:03.716Z,77.60
2018-02-14T11:41:30.734Z,75.70
2018-02-14T11:43:56.949Z,75.60
2018-02-14T11:46:23.177Z,75.00
2018-02-14T11:48:49.383Z,74.20
2018-02-14T11:51:16.373Z,73.00
2018-02-14T11:53:42.609Z,72.90
2018-02-14T11:56:08.848Z,73.00
2018-02-14T11:58:35.824Z,71.90
2018-02-14T12:01:02.084Z,71.90
2018-02-14T12:03:28.308Z,71.40
2018-02-14T12:05:54.500Z,71.00
2018-02-14T12:08:20.714Z,70.70
2018-02-14T12:10:46.958Z,70.90
2018-02-14T12:13:13.142Z,71.10
2018-02-14T12:15:40.156Z,70.30
2018-02-14T12:18:06.383Z,70.30
2018-02-14T12:20:32.601Z,70.60
2018-02-14T12:22:58.827Z,70.90
2018-02-14T12:25:25.041Z,71.20
2018-02-14T12:27:51.275Z,71.20
2018-02-14T12:30:18.288Z,71.30
2018-02-14T12:32:44.530Z,71.10
2018-02-14T12:35:10.757Z,70.40
2018-02-14T12:37:36.971Z,69.30
2018-02-14T12:40:03.211Z,69.20
2018-02-14T12:42:30.199Z,69.40
2018-02-14T12:44:56.435Z,69.30
2018-02-14T12:47:22.675Z,69.90
2018-02-14T12:49:49.203Z,70.00
2018-02-14T12:52:16.173Z,69.50
2018-02-14T12:54:42.380Z,69.50
2018-02-14T12:57:08.629Z,69.40
2018-02-14T12:59:35.589Z,69.40
2018-02-14T13:02:02.557Z,70.10
2018-02-14T13:04:29.511Z,69.60
2018-02-14T13:06:56.490Z,69.90
2018-02-14T13:09:22.754Z,69.80
2018-02-14T13:11:48.983Z,70.10
2018-02-14T13:14:15.238Z,70.10
2018-02-14T13:16:41.470Z,69.70
2018-02-14T13:19:07.744Z,69.60
2018-02-14T13:21:33.970Z,69.70
2018-02-14T13:24:00.921Z,71.80
2018-02-14T13:26:27.205Z,71.80
2018-02-14T13:28:54.148Z,70.30
2018-02-14T13:31:20.416Z,70.60
2018-02-14T13:33:47.378Z,69.60
2018-02-14T13:36:14.359Z,69.00
2018-02-14T13:38:40.560Z,69.00
2018-02-14T13:41:06.796Z,69.30
2018-02-14T13:43:33.031Z,69.90
2018-02-14T13:45:59.242Z,69.80
2018-02-14T13:48:25.472Z,69.80
2018-02-14T13:50:51.712Z,70.10
2018-02-14T13:53:17.946Z,70.40
2018-02-14T13:55:44.174Z,70.20
2018-02-14T13:58:10.387Z,70.30
2018-02-14T14:00:37.360Z,70.70
2018-02-14T14:03:03.576Z,70.70
2018-02-14T14:05:29.838Z,71.00
2018-02-14T14:07:56.081Z,71.30
2018-02-14T14:10:22.302Z,72.00
2018-02-14T14:12:49.306Z,72.70
2018-02-14T14:15:15.522Z,72.60
2018-02-14T14:17:42.764Z,73.00
2018-02-14T14:20:09.722Z,73.40
2018-02-14T14:22:35.939Z,73.40
2018-02-14T14:25:02.186Z,73.50
2018-02-14T14:27:28.426Z,73.50
2018-02-14T14:29:54.688Z,72.80
2018-02-14T14:32:21.668Z,70.10
2018-02-14T14:34:47.880Z,70.00
2018-02-14T14:37:14.868Z,70.00
2018-02-14T14:39:41.102Z,69.90
2018-02-14T14:42:07.371Z,70.20
2018-02-14T14:44:33.620Z,70.10
2018-02-14T14:47:00.307Z,69.50
2018-02-14T14:49:26.532Z,68.40
2018-02-14T14:51:52.770Z,67.20
2018-02-14T14:54:18.994Z,66.60
2018-02-14T14:56:45.443Z,66.70
2018-02-14T14:59:11.686Z,66.60
2018-02-14T15:01:37.924Z,66.90
2018-02-14T15:04:04.172Z,67.10
2018-02-14T15:06:30.417Z,66.90
2018-02-14T15:08:56.680Z,67.50
2018-02-14T15:11:23.663Z,66.10
2018-02-14T15:13:49.904Z,66.00
2018-02-14T15:16:16.115Z,66.40
2018-02-14T15:18:42.341Z,65.90
2018-02-14T15:21:08.594Z,66.70
2018-02-14T15:23:34.859Z,66.80
2018-02-14T15:26:01.097Z,67.50
2018-02-14T15:28:28.043Z,68.70
2018-02-14T15:30:54.275Z,68.60
2018-02-14T15:33:20.499Z,69.10
2018-02-14T15:35:46.749Z,69.50
2018-02-14T15:38:13.001Z,69.80
2018-02-14T15:40:39.959Z,70.10
2018-02-14T15:43:06.941Z,70.40
2018-02-14T15:45:33.207Z,70.30
2018-02-14T15:47:59.454Z,70.70
2018-02-14T15:50:25.677Z,70.70
2018-02-14T15:52:51.916Z,70.70
2018-02-14T15:55:18.195Z,71.10
2018-02-14T15:57:44.431Z,71.60
2018-02-14T16:00:10.689Z,71.90
2018-02-14T16:02:37.669Z,72.80
2018-02-14T16:05:04.709Z,72.90
2018-02-14T16:07:31.724Z,73.50
2018-02-14T16:09:57.967Z,73.50
2018-02-14T16:12:24.211Z,73.90
2018-02-14T16:14:50.455Z,74.30
2018-02-14T16:17:16.686Z,74.60
2018-02-14T16:19:42.923Z,75.00
2018-02-14T16:22:09.172Z,75.40
2018-02-14T16:24:35.404Z,75.90
2018-02-14T16:27:01.644Z,77.00
2018-02-14T16:29:27.906Z,76.90
2018-02-14T16:31:54.866Z,77.80
2018-02-14T16:34:21.101Z,78.50
2018-02-14T16:36:47.378Z,78.10
2018-02-14T16:39:13.630Z,78.20
2018-02-14T16:41:39.904Z,78.70
2018-02-14T16:44:06.138Z,79.20
2018-02-14T16:46:32.380Z,79.70
2018-02-14T16:48:58.622Z,80.20
2018-02-14T16:51:24.894Z,80.70
2018-02-14T16:53:51.166Z,81.70
2018-02-14T16:56:18.120Z,84.20
2018-02-14T16:58:44.366Z,83.50
2018-02-14T17:01:11.370Z,85.00
2018-02-14T17:03:37.657Z,85.00
2018-02-14T17:06:04.862Z,85.40
2018-02-14T17:08:31.108Z,85.90
2018-02-14T17:10:57.404Z,86.40
2018-02-14T17:13:23.600Z,86.60
2018-02-14T17:15:49.839Z,86.90
2018-02-14T17:18:16.090Z,87.20
2018-02-14T17:20:42.350Z,87.30
2018-02-14T17:23:08.702Z,88.20
2018-02-14T17:25:35.004Z,87.80
2018-02-14T17:28:01.317Z,88.20
2018-02-14T17:30:27.604Z,88.60
2018-02-14T17:32:53.893Z,89.20
2018-02-14T17:35:20.248Z,89.50
2018-02-14T17:37:47.220Z,90.10
2018-02-14T17:40:13.454Z,90.10
2018-02-14T17:42:39.756Z,90.20
2018-02-14T17:45:06.005Z,90.10
2018-02-14T17:47:33.019Z,90.70
2018-02-14T17:49:59.289Z,90.30
2018-02-14T17:52:26.305Z,90.40
2018-02-14T17:54:52.543Z,90.40
2018-02-14T17:57:18.783Z,90.40
2018-02-14T17:59:45.023Z,90.40
2018-02-14T18:02:11.263Z,90.50
2018-02-14T18:04:37.545Z,90.70
2018-02-14T18:07:03.780Z,90.80
2018-02-14T18:09:30.069Z,91.00
2018-02-14T18:11:56.323Z,91.10
2018-02-14T18:14:22.573Z,91.20
2018-02-14T18:16:48.839Z,91.40
2018-02-14T18:19:15.145Z,91.30
2018-02-14T18:21:41.457Z,91.20
2018-02-14T18:24:08.469Z,91.30
2018-02-14T18:26:34.789Z,91.30
2018-02-14T18:29:01.103Z,91.40
2018-02-14T18:31:28.213Z,91.50
2018-02-14T18:33:54.495Z,91.50
2018-02-14T18:36:21.528Z,91.60
2018-02-14T18:38:47.827Z,91.60
2018-02-14T18:41:14.176Z,91.70
2018-02-14T18:43:40.482Z,91.80
2018-02-14T18:46:06.786Z,92.00
2018-02-14T18:48:33.191Z,91.90
2018-02-14T18:50:59.528Z,91.90
2018-02-14T18:53:26.530Z,91.90
2018-02-14T18:55:52.864Z,91.90
2018-02-14T18:58:20.126Z,91.90
2018-02-14T19:00:46.422Z,91.90
2018-02-14T19:03:12.698Z,92.00
2018-02-14T19:05:39.063Z,92.20
2018-02-14T19:08:05.382Z,92.20
2018-02-14T19:10:31.668Z,92.30
2018-02-14T19:12:57.956Z,92.40
2018-02-14T19:15:25.080Z,92.40
2018-02-14T19:17:51.418Z,92.50
2018-02-14T19:20:17.704Z,92.40
2018-02-14T19:22:44.008Z,92.50
2018-02-14T19:25:10.315Z,92.90
2018-02-14T19:27:36.589Z,92.60
2018-02-14T19:30:02.928Z,92.80
2018-02-14T19:32:29.226Z,92.90
2018-02-14T19:34:55.522Z,93.10
2018-02-14T19:37:21.848Z,93.10
2018-02-14T19:39:48.109Z,93.10
2018-02-14T19:42:15.349Z,93.10
2018-02-14T19:44:41.604Z,93.10
2018-02-14T19:47:07.946Z,92.90
2018-02-14T19:49:34.243Z,92.90
2018-02-14T19:52:00.541Z,93.00
2018-02-14T19:54:27.595Z,93.30
2018-02-14T19:56:54.651Z,93.10
2018-02-14T19:59:20.955Z,93.20
2018-02-14T20:01:47.298Z,93.20
2018-02-14T20:04:13.602Z,93.10
2018-02-14T20:06:40.663Z,93.10
2018-02-14T20:09:07.793Z,93.20
2018-02-14T20:11:35.061Z,93.20
2018-02-14T20:14:02.131Z,93.30
2018-02-14T20:16:29.150Z,93.20
2018-02-14T20:18:55.463Z,93.30
2018-02-14T20:21:21.738Z,93.20
2018-02-14T20:23:48.283Z,93.20
2018-02-14T20:26:14.605Z,93.30
2018-02-14T20:28:40.909Z,93.40
2018-02-14T20:31:07.223Z,93.40
2018-02-14T20:33:34.345Z,93.50
2018-02-14T20:36:00.683Z,93.40
2018-02-14T20:38:28.045Z,93.40
2018-02-14T20:40:54.350Z,93.50
2018-02-14T20:43:20.609Z,93.50
2018-02-14T20:45:47.680Z,93.60
2018-02-14T20:48:14.690Z,93.70
2018-02-14T20:50:41.004Z,93.70
2018-02-14T20:53:07.379Z,93.80
2018-02-14T20:55:33.707Z,93.80
2018-02-14T20:58:00.022Z,93.80
2018-02-14T21:00:26.393Z,93.90
2018-02-14T21:02:52.664Z,94.10
2018-02-14T21:05:19.748Z,94.20
2018-02-14T21:07:46.043Z,94.20
2018-02-14T21:10:12.633Z,94.10
2018-02-14T21:12:39.688Z,94.10
2018-02-14T21:15:05.978Z,94.10
2018-02-14T21:17:32.278Z,94.10
2018-02-14T21:19:59.284Z,94.00
2018-02-14T21:22:25.596Z,94.00
2018-02-14T21:24:51.870Z,93.90
2018-02-14T21:27:18.173Z,94.00
2018-02-14T21:29:45.148Z,94.20
2018-02-14T21:32:11.368Z,94.20
2018-02-14T21:34:38.394Z,94.50
2018-02-14T21:37:04.667Z,94.50
2018-02-14T21:39:30.948Z,94.50
2018-02-14T21:41:57.195Z,94.50
2018-02-14T21:44:23.442Z,94.50
2018-02-14T21:46:49.673Z,94.50
2018-02-14T21:49:15.916Z,94.50
2018-02-14T21:51:42.227Z,94.70
2018-02-14T21:54:08.481Z,94.80
2018-02-14T21:56:34.731Z,94.80
2018-02-14T21:59:00.968Z,94.90
2018-02-14T22:01:27.193Z,94.90
2018-02-14T22:03:53.461Z,94.80
2018-02-14T22:06:19.715Z,94.80
2018-02-14T22:08:46.233Z,94.90
2018-02-14T22:11:12.450Z,94.90
2018-02-14T22:13:39.426Z,94.70
2018-02-14T22:16:05.663Z,94.70
2018-02-14T22:18:31.885Z,94.70
2018-02-14T22:20:59.127Z,94.70
2018-02-14T22:23:25.356Z,94.60
2018-02-14T22:25:51.603Z,94.60
2018-02-14T22:28:17.877Z,94.60
2018-02-14T22:30:44.835Z,94.40
2018-02-14T22:33:11.829Z,94.40
2018-02-14T22:35:38.090Z,94.40
2018-02-14T22:38:04.324Z,94.40
2018-02-14T22:40:30.566Z,94.50
2018-02-14T22:42:56.790Z,94.50
2018-02-14T22:45:23.015Z,94.50
2018-02-14T22:47:49.225Z,94.50
2018-02-14T22:50:16.176Z,94.30
2018-02-14T22:52:43.164Z,94.40
2018-02-14T22:55:09.393Z,94.30
2018-02-14T22:57:35.606Z,94.40
2018-02-14T23:00:01.856Z,94.40
2018-02-14T23:02:28.104Z,94.50
2018-02-14T23:04:54.330Z,94.40
2018-02-14T23:07:20.546Z,94.50
2018-02-14T23:09:46.770Z,94.60
2018-02-14T23:12:12.984Z,94.70
2018-02-14T23:14:39.207Z,94.60
2018-02-14T23:17:06.183Z,94.60
2018-02-14T23:19:32.418Z,94.60
2018-02-14T23:21:58.624Z,94.60
2018-02-14T23:24:24.828Z,94.60
2018-02-14T23:26:51.068Z,94.50
2018-02-14T23:29:17.313Z,94.30
2018-02-14T23:31:43.533Z,94.30
2018-02-14T23:34:09.776Z,94.10
2018-02-14T23:36:35.988Z,94.00
2018-02-14T23:39:03.026Z,94.00
2018-02-14T23:41:29.263Z,94.00
2018-02-14T23:43:55.496Z,94.20
2018-02-14T23:46:21.712Z,94.10
2018-02-14T23:48:47.951Z,94.20
2018-02-14T23:51:14.172Z,94.30
2018-02-14T23:53:41.104Z,94.30
2018-02-14T23:56:08.060Z,94.40
2018-02-14T23:58:34.996Z,94.40
